sensor_id;sensor_type;location;lat;lon;timestamp;P1;durP1;ratioP1;P2;durP2;ratioP2
47129;SDS011;69689;48.122;11.542;2023-09-07T05:03:41;0.10;;;0.10;;
47129;SDS011;69689;48.122;11.542;2023-09-07T05:06:06;0.10;;;0.10;;
47129;SDS011;69689;48.122;11.542;2023-09-07T05:08:32;0.03;;;0.03;;
47129;SDS011;69689;48.122;11.542;2023-09-07T05:10:58;0.10;;;0.10;;
47129;SDS011;69689;48.122;11.542;2023-09-07T05:13:24;0.03;;;0.03;;
47129;SDS011;69689;48.122;11.542;2023-09-07T05:15:51;0.10;;;0.10;;
47129;SDS011;69689;48.122;11.542;2023-09-07T05:18:17;0.38;;;0.10;;
47129;SDS011;69689;48.122;11.542;2023-09-07T05:20:43;0.00;;;0.00;;
47129;SDS011;69689;48.122;11.542;2023-09-07T05:23:11;0.00;;;0.00;;
47129;SDS011;69689;48.122;11.542;2023-09-07T05:25:54;0.00;;;0.00;;
47129;SDS011;69689;48.122;11.542;2023-09-07T05:28:20;0.00;;;0.00;;
47129;SDS011;69689;48.122;11.542;2023-09-07T05:30:46;0.00;;;0.00;;
47129;SDS011;69689;48.122;11.542;2023-09-07T05:33:13;0.10;;;0.00;;
47129;SDS011;69689;48.122;11.542;2023-09-07T05:35:39;0.00;;;0.00;;
47129;SDS011;69689;48.122;11.542;2023-09-07T05:38:05;0.20;;;0.00;;
47129;SDS011;69689;48.122;11.542;2023-09-07T05:40:33;0.00;;;0.00;;
47129;SDS011;69689;48.122;11.542;2023-09-07T05:43:02;0.00;;;0.00;;
47129;SDS011;69689;48.122;11.542;2023-09-07T05:45:29;0.00;;;0.00;;
47129;SDS011;69689;48.122;11.542;2023-09-07T05:47:58;0.00;;;0.00;;
47129;SDS011;69689;48.122;11.542;2023-09-07T05:50:24;0.00;;;0.00;;
47129;SDS011;69689;48.122;11.542;2023-09-07T05:52:49;0.00;;;0.00;;
47129;SDS011;69689;48.122;11.542;2023-09-07T05:55:15;0.15;;;0.00;;
47129;SDS011;69689;48.122;11.542;2023-09-07T05:57:40;0.00;;;0.00;;
47129;SDS011;69689;48.122;11.542;2023-09-07T06:02:31;0.00;;;0.00;;
47129;SDS011;69689;48.122;11.542;2023-09-07T06:07:22;0.00;;;0.00;;
47129;SDS011;69689;48.122;11.542;2023-09-07T06:09:47;0.00;;;0.00;;
47129;SDS011;69689;48.122;11.542;2023-09-07T06:14:38;0.00;;;0.00;;
47129;SDS011;69689;48.122;11.542;2023-09-07T06:19:29;0.00;;;0.00;;
47129;SDS011;69689;48.122;11.542;2023-09-07T06:24:19;0.00;;;0.00;;
47129;SDS011;69689;48.122;11.542;2023-09-07T06:26:45;0.00;;;0.00;;
47129;SDS011;69689;48.122;11.542;2023-09-07T06:34:01;0.00;;;0.00;;
47129;SDS011;69689;48.122;11.542;2023-09-07T06:36:29;0.00;;;0.00;;
47129;SDS011;69689;48.122;11.542;2023-09-07T06:38:54;0.00;;;0.00;;
47129;SDS011;69689;48.122;11.542;2023-09-07T06:43:45;0.00;;;0.00;;
47129;SDS011;69689;48.122;11.542;2023-09-07T06:46:10;0.00;;;0.00;;
47129;SDS011;69689;48.122;11.542;2023-09-07T06:51:02;0.00;;;0.00;;
47129;SDS011;69689;48.122;11.542;2023-09-07T06:53:29;0.00;;;0.00;;
47129;SDS011;69689;48.122;11.542;2023-09-07T06:55:58;0.00;;;0.00;;
47129;SDS011;69689;48.122;11.542;2023-09-07T06:58:23;0.00;;;0.00;;
47129;SDS011;69689;48.122;11.542;2023-09-07T07:00:52;0.00;;;0.00;;
47129;SDS011;69689;48.122;11.542;2023-09-07T07:03:36;0.00;;;0.00;;
47129;SDS011;69689;48.122;11.542;2023-09-07T07:06:04;0.00;;;0.00;;
47129;SDS011;69689;48.122;11.542;2023-09-07T07:08:30;0.00;;;0.00;;
47129;SDS011;69689;48.122;11.542;2023-09-07T07:10:55;0.00;;;0.00;;
47129;SDS011;69689;48.122;11.542;2023-09-07T07:13:21;0.00;;;0.00;;
47129;SDS011;69689;48.122;11.542;2023-09-07T07:15:46;0.00;;;0.00;;
47129;SDS011;69689;48.122;11.542;2023-09-07T07:18:11;0.00;;;0.00;;
47129;SDS011;69689;48.122;11.542;2023-09-07T07:20:41;0.00;;;0.00;;
47129;SDS011;69689;48.122;11.542;2023-09-07T07:23:12;0.00;;;0.00;;
47129;SDS011;69689;48.122;11.542;2023-09-07T07:25:38;0.00;;;0.00;;
47129;SDS011;69689;48.122;11.542;2023-09-07T07:28:06;0.00;;;0.00;;
47129;SDS011;69689;48.122;11.542;2023-09-07T07:30:33;0.00;;;0.00;;
47129;SDS011;69689;48.122;11.542;2023-09-07T07:32:58;0.00;;;0.00;;
47129;SDS011;69689;48.122;11.542;2023-09-07T07:35:24;0.00;;;0.00;;
47129;SDS011;69689;48.122;11.542;2023-09-07T07:37:49;0.00;;;0.00;;
47129;SDS011;69689;48.122;11.542;2023-09-07T07:40:15;0.00;;;0.00;;
47129;SDS011;69689;48.122;11.542;2023-09-07T07:42:42;0.00;;;0.00;;
47129;SDS011;69689;48.122;11.542;2023-09-07T07:45:08;0.00;;;0.00;;
47129;SDS011;69689;48.122;11.542;2023-09-07T07:47:34;0.00;;;0.00;;
47129;SDS011;69689;48.122;11.542;2023-09-07T07:49:59;0.00;;;0.00;;
47129;SDS011;69689;48.122;11.542;2023-09-07T07:52:25;0.00;;;0.00;;
47129;SDS011;69689;48.122;11.542;2023-09-07T07:54:50;0.00;;;0.00;;
47129;SDS011;69689;48.122;11.542;2023-09-07T07:57:15;0.00;;;0.00;;
47129;SDS011;69689;48.122;11.542;2023-09-07T07:59:41;0.00;;;0.00;;
47129;SDS011;69689;48.122;11.542;2023-09-07T08:02:06;0.00;;;0.00;;
47129;SDS011;69689;48.122;11.542;2023-09-07T08:04:32;0.00;;;0.00;;
47129;SDS011;69689;48.122;11.542;2023-09-07T08:06:58;0.00;;;0.00;;
47129;SDS011;69689;48.122;11.542;2023-09-07T08:09:28;0.00;;;0.00;;
47129;SDS011;69689;48.122;11.542;2023-09-07T08:11:56;0.00;;;0.00;;
47129;SDS011;69689;48.122;11.542;2023-09-07T08:14:23;0.00;;;0.00;;
47129;SDS011;69689;48.122;11.542;2023-09-07T08:16:49;0.00;;;0.00;;
47129;SDS011;69689;48.122;11.542;2023-09-07T08:19:15;0.00;;;0.00;;
47129;SDS011;69689;48.122;11.542;2023-09-07T08:21:40;0.00;;;0.00;;
47129;SDS011;69689;48.122;11.542;2023-09-07T08:24:07;0.00;;;0.00;;
47129;SDS011;69689;48.122;11.542;2023-09-07T08:26:33;0.00;;;0.00;;
47129;SDS011;69689;48.122;11.542;2023-09-07T08:28:58;0.00;;;0.00;;
47129;SDS011;69689;48.122;11.542;2023-09-07T08:31:24;0.00;;;0.00;;
47129;SDS011;69689;48.122;11.542;2023-09-07T08:33:49;0.00;;;0.00;;
47129;SDS011;69689;48.122;11.542;2023-09-07T08:36:17;0.00;;;0.00;;
47129;SDS011;69689;48.122;11.542;2023-09-07T08:38:43;0.00;;;0.00;;
47129;SDS011;69689;48.122;11.542;2023-09-07T08:41:08;0.00;;;0.00;;
47129;SDS011;69689;48.122;11.542;2023-09-07T08:43:34;0.00;;;0.00;;
47129;SDS011;69689;48.122;11.542;2023-09-07T08:46:34;0.00;;;0.00;;
47129;SDS011;69689;48.122;11.542;2023-09-07T08:48:52;0.00;;;0.00;;
47129;SDS011;69689;48.122;11.542;2023-09-07T08:51:20;0.00;;;0.00;;
47129;SDS011;69689;48.122;11.542;2023-09-07T08:53:45;0.00;;;0.00;;
47129;SDS011;69689;48.122;11.542;2023-09-07T08:56:14;0.00;;;0.00;;
47129;SDS011;69689;48.122;11.542;2023-09-07T08:58:42;0.00;;;0.00;;
47129;SDS011;69689;48.122;11.542;2023-09-07T09:01:09;0.00;;;0.00;;
47129;SDS011;69689;48.122;11.542;2023-09-07T09:03:35;0.00;;;0.00;;
47129;SDS011;69689;48.122;11.542;2023-09-07T09:06:01;0.00;;;0.00;;
47129;SDS011;69689;48.122;11.542;2023-09-07T09:08:29;0.00;;;0.00;;
47129;SDS011;69689;48.122;11.542;2023-09-07T09:11:01;0.00;;;0.00;;
47129;SDS011;69689;48.122;11.542;2023-09-07T09:13:30;0.10;;;0.10;;
47129;SDS011;69689;48.122;11.542;2023-09-07T09:15:58;0.38;;;0.38;;
47129;SDS011;69689;48.122;11.542;2023-09-07T09:18:24;1.15;;;1.15;;
47129;SDS011;69689;48.122;11.542;2023-09-07T09:20:52;2.08;;;2.08;;
47129;SDS011;69689;48.122;11.542;2023-09-07T09:23:17;3.53;;;3.47;;
47129;SDS011;69689;48.122;11.542;2023-09-07T09:25:43;6.43;;;6.30;;
47129;SDS011;69689;48.122;11.542;2023-09-07T09:28:09;7.55;;;7.35;;
47129;SDS011;69689;48.122;11.542;2023-09-07T09:30:35;7.22;;;7.03;;
47129;SDS011;69689;48.122;11.542;2023-09-07T09:33:01;14.40;;;14.00;;
47129;SDS011;69689;48.122;11.542;2023-09-07T09:35:26;26.20;;;25.42;;
47129;SDS011;69689;48.122;11.542;2023-09-07T09:37:51;26.85;;;26.05;;
47129;SDS011;69689;48.122;11.542;2023-09-07T09:40:17;27.05;;;26.27;;
47129;SDS011;69689;48.122;11.542;2023-09-07T09:42:43;36.90;;;35.80;;
47129;SDS011;69689;48.122;11.542;2023-09-07T09:45:09;36.38;;;35.28;;
47129;SDS011;69689;48.122;11.542;2023-09-07T09:47:42;44.55;;;43.25;;
47129;SDS011;69689;48.122;11.542;2023-09-07T09:50:08;60.78;;;59.05;;
47129;SDS011;69689;48.122;11.542;2023-09-07T09:52:35;53.53;;;51.95;;
47129;SDS011;69689;48.122;11.542;2023-09-07T09:55:02;75.03;;;72.93;;
47129;SDS011;69689;48.122;11.542;2023-09-07T09:57:30;83.20;;;80.90;;
47129;SDS011;69689;48.122;11.542;2023-09-07T09:59:57;90.28;;;87.78;;
47129;SDS011;69689;48.122;11.542;2023-09-07T10:02:24;99.43;;;96.72;;
47129;SDS011;69689;48.122;11.542;2023-09-07T10:04:49;104.60;;;101.75;;
47129;SDS011;69689;48.122;11.542;2023-09-07T10:07:15;121.22;;;118.03;;
47129;SDS011;69689;48.122;11.542;2023-09-07T10:09:40;160.57;;;156.52;;
47129;SDS011;69689;48.122;11.542;2023-09-07T10:12:10;128.93;;;125.47;;
47129;SDS011;69689;48.122;11.542;2023-09-07T10:14:40;138.45;;;134.77;;
47129;SDS011;69689;48.122;11.542;2023-09-07T10:17:06;150.45;;;146.52;;
47129;SDS011;69689;48.122;11.542;2023-09-07T10:19:32;194.07;;;189.27;;
47129;SDS011;69689;48.122;11.542;2023-09-07T10:21:58;194.18;;;189.38;;
47129;SDS011;69689;48.122;11.542;2023-09-07T10:29:42;263.10;;;256.95;;
47129;SDS011;69689;48.122;11.542;2023-09-07T10:32:09;274.88;;;268.45;;
47129;SDS011;69689;48.122;11.542;2023-09-07T10:34:37;281.80;;;275.23;;
47129;SDS011;69689;48.122;11.542;2023-09-07T10:37:04;267.40;;;261.13;;
47129;SDS011;69689;48.122;11.542;2023-09-07T10:39:33;298.70;;;291.83;;
47129;SDS011;69689;48.122;11.542;2023-09-07T10:41:58;285.85;;;279.20;;
47129;SDS011;69689;48.122;11.542;2023-09-07T10:44:27;312.13;;;304.93;;
47129;SDS011;69689;48.122;11.542;2023-09-07T10:46:53;344.40;;;336.65;;
47129;SDS011;69689;48.122;11.542;2023-09-07T10:49:19;342.50;;;334.75;;
47129;SDS011;69689;48.122;11.542;2023-09-07T10:51:45;353.23;;;345.25;;
47129;SDS011;69689;48.122;11.542;2023-09-07T10:54:14;361.60;;;353.58;;
47129;SDS011;69689;48.122;11.542;2023-09-07T10:56:48;334.58;;;326.92;;
47129;SDS011;69689;48.122;11.542;2023-09-07T10:59:15;355.73;;;347.63;;
47129;SDS011;69689;48.122;11.542;2023-09-07T11:01:41;374.50;;;366.13;;
47129;SDS011;69689;48.122;11.542;2023-09-07T11:04:08;378.40;;;369.92;;
47129;SDS011;69689;48.122;11.542;2023-09-07T11:06:36;405.27;;;396.40;;
47129;SDS011;69689;48.122;11.542;2023-09-07T11:09:02;415.35;;;406.35;;
47129;SDS011;69689;48.122;11.542;2023-09-07T11:11:31;423.60;;;414.45;;
47129;SDS011;69689;48.122;11.542;2023-09-07T11:14:02;433.48;;;424.15;;
47129;SDS011;69689;48.122;11.542;2023-09-07T11:16:28;462.23;;;452.50;;
47129;SDS011;69689;48.122;11.542;2023-09-07T11:18:54;449.98;;;440.33;;
47129;SDS011;69689;48.122;11.542;2023-09-07T11:21:20;448.27;;;438.70;;
47129;SDS011;69689;48.122;11.542;2023-09-07T11:23:45;424.52;;;415.20;;
47129;SDS011;69689;48.122;11.542;2023-09-07T11:26:11;486.42;;;476.20;;
47129;SDS011;69689;48.122;11.542;2023-09-07T11:28:37;465.95;;;456.00;;
47129;SDS011;69689;48.122;11.542;2023-09-07T11:31:03;495.50;;;485.13;;
47129;SDS011;69689;48.122;11.542;2023-09-07T11:33:31;450.42;;;440.75;;
47129;SDS011;69689;48.122;11.542;2023-09-07T11:35:57;445.38;;;435.73;;
47129;SDS011;69689;48.122;11.542;2023-09-07T11:38:22;507.77;;;497.17;;
47129;SDS011;69689;48.122;11.542;2023-09-07T11:40:54;479.42;;;469.25;;
47129;SDS011;69689;48.122;11.542;2023-09-07T11:43:19;439.98;;;430.42;;
47129;SDS011;69689;48.122;11.542;2023-09-07T11:45:45;500.02;;;489.52;;
47129;SDS011;69689;48.122;11.542;2023-09-07T11:48:11;472.17;;;462.15;;
47129;SDS011;69689;48.122;11.542;2023-09-07T11:50:37;474.20;;;464.08;;
47129;SDS011;69689;48.122;11.542;2023-09-07T11:53:03;490.17;;;479.80;;
47129;SDS011;69689;48.122;11.542;2023-09-07T11:55:29;455.88;;;446.00;;
47129;SDS011;69689;48.122;11.542;2023-09-07T11:57:56;455.80;;;445.90;;
47129;SDS011;69689;48.122;11.542;2023-09-07T12:00:21;530.35;;;519.42;;
47129;SDS011;69689;48.122;11.542;2023-09-07T12:02:47;455.50;;;445.65;;
47129;SDS011;69689;48.122;11.542;2023-09-07T12:05:13;495.98;;;485.58;;
47129;SDS011;69689;48.122;11.542;2023-09-07T12:07:40;479.50;;;469.27;;
47129;SDS011;69689;48.122;11.542;2023-09-07T12:10:06;442.83;;;433.10;;
47129;SDS011;69689;48.122;11.542;2023-09-07T12:12:36;451.23;;;441.38;;
47129;SDS011;69689;48.122;11.542;2023-09-07T12:15:05;478.58;;;468.33;;
47129;SDS011;69689;48.122;11.542;2023-09-07T12:17:31;470.52;;;460.40;;
47129;SDS011;69689;48.122;11.542;2023-09-07T12:19:57;491.30;;;480.85;;
47129;SDS011;69689;48.122;11.542;2023-09-07T12:22:23;477.92;;;467.67;;
47129;SDS011;69689;48.122;11.542;2023-09-07T12:24:49;528.58;;;517.58;;
47129;SDS011;69689;48.122;11.542;2023-09-07T12:27:14;513.45;;;502.67;;
47129;SDS011;69689;48.122;11.542;2023-09-07T12:29:40;525.63;;;514.67;;
47129;SDS011;69689;48.122;11.542;2023-09-07T12:32:05;477.20;;;466.90;;
47129;SDS011;69689;48.122;11.542;2023-09-07T12:34:31;506.23;;;495.60;;
47129;SDS011;69689;48.122;11.542;2023-09-07T12:36:56;498.67;;;488.13;;
47129;SDS011;69689;48.122;11.542;2023-09-07T12:39:22;518.47;;;507.53;;
47129;SDS011;69689;48.122;11.542;2023-09-07T12:41:47;509.58;;;498.80;;
47129;SDS011;69689;48.122;11.542;2023-09-07T12:44:13;526.33;;;515.30;;
47129;SDS011;69689;48.122;11.542;2023-09-07T12:46:39;511.65;;;500.80;;
47129;SDS011;69689;48.122;11.542;2023-09-07T12:49:05;605.15;;;593.10;;
47129;SDS011;69689;48.122;11.542;2023-09-07T12:51:31;533.60;;;522.50;;
47129;SDS011;69689;48.122;11.542;2023-09-07T12:53:56;492.53;;;482.03;;
47129;SDS011;69689;48.122;11.542;2023-09-07T12:56:21;530.13;;;519.10;;
47129;SDS011;69689;48.122;11.542;2023-09-07T12:58:47;504.15;;;493.58;;
47129;SDS011;69689;48.122;11.542;2023-09-07T13:01:12;457.05;;;447.10;;
47129;SDS011;69689;48.122;11.542;2023-09-07T13:03:40;461.40;;;451.50;;
47129;SDS011;69689;48.122;11.542;2023-09-07T13:06:06;493.05;;;482.67;;
47129;SDS011;69689;48.122;11.542;2023-09-07T13:08:31;469.70;;;459.67;;
47129;SDS011;69689;48.122;11.542;2023-09-07T13:10:56;480.30;;;470.13;;
47129;SDS011;69689;48.122;11.542;2023-09-07T13:13:25;467.83;;;457.77;;
47129;SDS011;69689;48.122;11.542;2023-09-07T13:15:57;446.48;;;436.85;;
47129;SDS011;69689;48.122;11.542;2023-09-07T13:18:23;448.00;;;438.40;;
47129;SDS011;69689;48.122;11.542;2023-09-07T13:20:48;468.25;;;458.30;;
47129;SDS011;69689;48.122;11.542;2023-09-07T13:23:19;419.02;;;409.75;;
47129;SDS011;69689;48.122;11.542;2023-09-07T13:25:45;430.83;;;421.47;;
47129;SDS011;69689;48.122;11.542;2023-09-07T13:28:10;427.40;;;418.10;;
47129;SDS011;69689;48.122;11.542;2023-09-07T13:30:36;440.00;;;430.52;;
47129;SDS011;69689;48.122;11.542;2023-09-07T13:33:02;477.15;;;467.17;;
47129;SDS011;69689;48.122;11.542;2023-09-07T13:35:27;426.83;;;417.52;;
47129;SDS011;69689;48.122;11.542;2023-09-07T13:37:53;420.60;;;411.33;;
47129;SDS011;69689;48.122;11.542;2023-09-07T13:40:18;432.15;;;422.83;;
47129;SDS011;69689;48.122;11.542;2023-09-07T13:42:47;378.42;;;369.85;;
47129;SDS011;69689;48.122;11.542;2023-09-07T13:45:13;417.08;;;407.95;;
47129;SDS011;69689;48.122;11.542;2023-09-07T13:47:38;401.90;;;393.02;;
47129;SDS011;69689;48.122;11.542;2023-09-07T13:50:04;435.73;;;426.40;;
47129;SDS011;69689;48.122;11.542;2023-09-07T13:52:30;382.23;;;373.63;;
47129;SDS011;69689;48.122;11.542;2023-09-07T13:54:55;395.42;;;386.73;;
47129;SDS011;69689;48.122;11.542;2023-09-07T13:57:21;392.87;;;384.20;;
47129;SDS011;69689;48.122;11.542;2023-09-07T13:59:47;368.65;;;360.38;;
47129;SDS011;69689;48.122;11.542;2023-09-07T14:02:12;412.02;;;403.05;;
47129;SDS011;69689;48.122;11.542;2023-09-07T14:04:37;352.88;;;344.85;;
47129;SDS011;69689;48.122;11.542;2023-09-07T14:07:03;368.38;;;360.15;;
47129;SDS011;69689;48.122;11.542;2023-09-07T14:09:28;380.58;;;372.15;;
47129;SDS011;69689;48.122;11.542;2023-09-07T14:11:54;374.08;;;365.77;;
47129;SDS011;69689;48.122;11.542;2023-09-07T14:14:19;356.92;;;348.77;;
47129;SDS011;69689;48.122;11.542;2023-09-07T14:16:47;400.17;;;391.48;;
47129;SDS011;69689;48.122;11.542;2023-09-07T14:19:15;327.20;;;319.65;;
47129;SDS011;69689;48.122;11.542;2023-09-07T14:21:43;323.27;;;315.83;;
47129;SDS011;69689;48.122;11.542;2023-09-07T14:24:09;377.60;;;369.25;;
47129;SDS011;69689;48.122;11.542;2023-09-07T14:26:34;322.17;;;314.80;;
47129;SDS011;69689;48.122;11.542;2023-09-07T14:29:00;310.70;;;303.53;;
47129;SDS011;69689;48.122;11.542;2023-09-07T14:31:25;305.08;;;298.02;;
47129;SDS011;69689;48.122;11.542;2023-09-07T14:33:50;278.63;;;272.03;;
47129;SDS011;69689;48.122;11.542;2023-09-07T14:36:22;314.30;;;307.05;;
47129;SDS011;69689;48.122;11.542;2023-09-07T14:38:47;285.38;;;278.67;;
47129;SDS011;69689;48.122;11.542;2023-09-07T14:41:12;304.70;;;297.67;;
47129;SDS011;69689;48.122;11.542;2023-09-07T14:43:44;265.08;;;258.77;;
47129;SDS011;69689;48.122;11.542;2023-09-07T14:46:13;325.05;;;317.70;;
47129;SDS011;69689;48.122;11.542;2023-09-07T14:48:39;287.95;;;281.23;;
47129;SDS011;69689;48.122;11.542;2023-09-07T14:51:05;306.33;;;299.33;;
47129;SDS011;69689;48.122;11.542;2023-09-07T14:53:31;291.00;;;284.27;;
47129;SDS011;69689;48.122;11.542;2023-09-07T14:55:56;280.65;;;274.15;;
47129;SDS011;69689;48.122;11.542;2023-09-07T14:58:21;281.15;;;274.60;;
47129;SDS011;69689;48.122;11.542;2023-09-07T15:00:47;238.13;;;232.40;;
47129;SDS011;69689;48.122;11.542;2023-09-07T15:03:12;246.77;;;240.88;;
47129;SDS011;69689;48.122;11.542;2023-09-07T15:05:38;207.60;;;202.50;;
47129;SDS011;69689;48.122;11.542;2023-09-07T15:08:04;233.85;;;228.23;;
47129;SDS011;69689;48.122;11.542;2023-09-07T15:10:34;263.42;;;257.23;;
47129;SDS011;69689;48.122;11.542;2023-09-07T15:13:00;248.23;;;242.35;;
47129;SDS011;69689;48.122;11.542;2023-09-07T15:15:29;280.02;;;273.48;;
47129;SDS011;69689;48.122;11.542;2023-09-07T15:17:58;244.30;;;238.43;;
47129;SDS011;69689;48.122;11.542;2023-09-07T15:20:27;237.80;;;232.07;;
47129;SDS011;69689;48.122;11.542;2023-09-07T15:22:52;257.20;;;251.10;;
47129;SDS011;69689;48.122;11.542;2023-09-07T15:25:18;266.20;;;260.00;;
47129;SDS011;69689;48.122;11.542;2023-09-07T15:27:43;245.52;;;239.68;;
47129;SDS011;69689;48.122;11.542;2023-09-07T15:30:10;220.52;;;215.15;;
47129;SDS011;69689;48.122;11.542;2023-09-07T15:32:37;211.63;;;206.48;;
47129;SDS011;69689;48.122;11.542;2023-09-07T15:35:07;195.98;;;191.13;;
47129;SDS011;69689;48.122;11.542;2023-09-07T15:37:32;171.35;;;167.00;;
47129;SDS011;69689;48.122;11.542;2023-09-07T15:39:58;175.68;;;171.23;;
47129;SDS011;69689;48.122;11.542;2023-09-07T15:42:23;147.98;;;144.13;;
47129;SDS011;69689;48.122;11.542;2023-09-07T15:44:49;148.40;;;144.57;;
47129;SDS011;69689;48.122;11.542;2023-09-07T15:47:14;142.77;;;139.05;;
47129;SDS011;69689;48.122;11.542;2023-09-07T15:49:40;130.63;;;127.15;;
47129;SDS011;69689;48.122;11.542;2023-09-07T15:52:07;139.07;;;135.43;;
47129;SDS011;69689;48.122;11.542;2023-09-07T15:54:32;108.32;;;105.35;;
47129;SDS011;69689;48.122;11.542;2023-09-07T15:56:58;94.73;;;92.13;;
47129;SDS011;69689;48.122;11.542;2023-09-07T15:59:24;107.65;;;104.72;;
47129;SDS011;69689;48.122;11.542;2023-09-07T16:01:49;92.27;;;89.73;;
47129;SDS011;69689;48.122;11.542;2023-09-07T16:04:15;68.70;;;66.72;;
47129;SDS011;69689;48.122;11.542;2023-09-07T16:06:40;84.03;;;81.68;;
47129;SDS011;69689;48.122;11.542;2023-09-07T16:09:06;78.45;;;76.25;;
47129;SDS011;69689;48.122;11.542;2023-09-07T16:11:31;67.35;;;65.40;;
47129;SDS011;69689;48.122;11.542;2023-09-07T16:13:56;56.27;;;54.67;;
47129;SDS011;69689;48.122;11.542;2023-09-07T16:16:22;76.38;;;74.18;;
47129;SDS011;69689;48.122;11.542;2023-09-07T16:18:49;49.20;;;47.75;;
47129;SDS011;69689;48.122;11.542;2023-09-07T16:21:16;41.97;;;40.75;;
47129;SDS011;69689;48.122;11.542;2023-09-07T16:23:44;34.25;;;33.25;;
47129;SDS011;69689;48.122;11.542;2023-09-07T16:26:10;43.53;;;42.22;;
47129;SDS011;69689;48.122;11.542;2023-09-07T16:28:36;28.33;;;27.52;;
47129;SDS011;69689;48.122;11.542;2023-09-07T16:31:01;35.58;;;34.53;;
47129;SDS011;69689;48.122;11.542;2023-09-07T16:33:27;21.02;;;20.42;;
47129;SDS011;69689;48.122;11.542;2023-09-07T16:35:52;15.32;;;14.90;;
47129;SDS011;69689;48.122;11.542;2023-09-07T16:38:18;4.47;;;4.38;;
47129;SDS011;69689;48.122;11.542;2023-09-07T16:40:44;2.33;;;2.33;;
47129;SDS011;69689;48.122;11.542;2023-09-07T16:43:09;0.55;;;0.55;;
47129;SDS011;69689;48.122;11.542;2023-09-07T16:45:37;0.10;;;0.10;;
47129;SDS011;69689;48.122;11.542;2023-09-07T16:48:03;0.10;;;0.10;;
47129;SDS011;69689;48.122;11.542;2023-09-07T16:50:30;0.10;;;0.10;;
47129;SDS011;69689;48.122;11.542;2023-09-07T16:52:55;0.00;;;0.00;;
47129;SDS011;69689;48.122;11.542;2023-09-07T16:55:21;0.10;;;0.10;;
47129;SDS011;69689;48.122;11.542;2023-09-07T16:57:47;0.10;;;0.10;;
47129;SDS011;69689;48.122;11.542;2023-09-07T17:00:12;0.07;;;0.07;;
47129;SDS011;69689;48.122;11.542;2023-09-07T17:02:39;0.00;;;0.00;;
47129;SDS011;69689;48.122;11.542;2023-09-07T17:05:04;0.00;;;0.00;;
47129;SDS011;69689;48.122;11.542;2023-09-07T17:07:30;0.00;;;0.00;;
47129;SDS011;69689;48.122;11.542;2023-09-07T17:09:55;0.00;;;0.00;;
47129;SDS011;69689;48.122;11.542;2023-09-07T17:12:21;0.05;;;0.05;;
47129;SDS011;69689;48.122;11.542;2023-09-07T17:14:46;0.00;;;0.00;;
47129;SDS011;69689;48.122;11.542;2023-09-07T17:17:12;0.00;;;0.00;;
47129;SDS011;69689;48.122;11.542;2023-09-07T17:19:37;0.00;;;0.00;;
47129;SDS011;69689;48.122;11.542;2023-09-07T17:22:03;0.00;;;0.00;;
47129;SDS011;69689;48.122;11.542;2023-09-07T17:24:28;0.00;;;0.00;;
47129;SDS011;69689;48.122;11.542;2023-09-07T17:26:55;0.00;;;0.00;;
47129;SDS011;69689;48.122;11.542;2023-09-07T17:29:20;0.00;;;0.00;;
47129;SDS011;69689;48.122;11.542;2023-09-07T17:31:46;0.00;;;0.00;;
47129;SDS011;69689;48.122;11.542;2023-09-07T17:34:12;0.00;;;0.00;;
47129;SDS011;69689;48.122;11.542;2023-09-07T17:36:38;0.00;;;0.00;;
47129;SDS011;69689;48.122;11.542;2023-09-07T17:39:04;0.00;;;0.00;;
47129;SDS011;69689;48.122;11.542;2023-09-07T17:41:31;0.00;;;0.00;;
47129;SDS011;69689;48.122;11.542;2023-09-07T17:43:58;0.00;;;0.00;;
47129;SDS011;69689;48.122;11.542;2023-09-07T17:46:24;0.00;;;0.00;;
47129;SDS011;69689;48.122;11.542;2023-09-07T17:48:50;0.00;;;0.00;;
47129;SDS011;69689;48.122;11.542;2023-09-07T17:51:16;0.10;;;0.00;;
47129;SDS011;69689;48.122;11.542;2023-09-07T17:53:41;0.00;;;0.00;;
47129;SDS011;69689;48.122;11.542;2023-09-07T17:56:11;0.00;;;0.00;;
47129;SDS011;69689;48.122;11.542;2023-09-07T17:58:39;0.00;;;0.00;;
47129;SDS011;69689;48.122;11.542;2023-09-07T18:01:12;0.00;;;0.00;;
47129;SDS011;69689;48.122;11.542;2023-09-07T18:03:39;0.00;;;0.00;;
47129;SDS011;69689;48.122;11.542;2023-09-07T18:06:05;0.00;;;0.00;;
47129;SDS011;69689;48.122;11.542;2023-09-07T18:08:31;0.00;;;0.00;;
47129;SDS011;69689;48.122;11.542;2023-09-07T18:10:57;0.00;;;0.00;;
47129;SDS011;69689;48.122;11.542;2023-09-07T18:13:23;0.00;;;0.00;;
47129;SDS011;69689;48.122;11.542;2023-09-07T18:15:49;0.00;;;0.00;;
47129;SDS011;69689;48.122;11.542;2023-09-07T18:18:14;0.00;;;0.00;;
47129;SDS011;69689;48.122;11.542;2023-09-07T18:20:40;0.00;;;0.00;;
47129;SDS011;69689;48.122;11.542;2023-09-07T18:23:06;0.00;;;0.00;;
47129;SDS011;69689;48.122;11.542;2023-09-07T18:25:35;0.00;;;0.00;;
47129;SDS011;69689;48.122;11.542;2023-09-07T18:28:01;0.00;;;0.00;;
47129;SDS011;69689;48.122;11.542;2023-09-07T18:30:27;0.00;;;0.00;;
47129;SDS011;69689;48.122;11.542;2023-09-07T18:32:52;0.00;;;0.00;;
47129;SDS011;69689;48.122;11.542;2023-09-07T18:35:18;0.00;;;0.00;;
47129;SDS011;69689;48.122;11.542;2023-09-07T18:37:43;0.00;;;0.00;;
47129;SDS011;69689;48.122;11.542;2023-09-07T18:40:10;0.00;;;0.00;;
47129;SDS011;69689;48.122;11.542;2023-09-07T18:42:36;0.00;;;0.00;;
47129;SDS011;69689;48.122;11.542;2023-09-07T18:45:01;0.00;;;0.00;;
47129;SDS011;69689;48.122;11.542;2023-09-07T18:47:28;0.00;;;0.00;;
47129;SDS011;69689;48.122;11.542;2023-09-07T18:49:54;0.00;;;0.00;;
47129;SDS011;69689;48.122;11.542;2023-09-07T18:52:20;0.00;;;0.00;;
47129;SDS011;69689;48.122;11.542;2023-09-07T18:54:45;0.00;;;0.00;;
47129;SDS011;69689;48.122;11.542;2023-09-07T18:57:11;0.00;;;0.00;;
47129;SDS011;69689;48.122;11.542;2023-09-07T18:59:37;0.00;;;0.00;;
